Danny G — WDD3436 — position and weather

sailwx.info

Track history (hours):
 
Tides and Currents Weather Stations Pressure Air Temp Water Temp Dewpoint Dewpoint Depression Visibility Wind Speed Wind Dir Waves Ship Positions

Danny G

Owner: PACIFIC TUGBOAT SERVICE, INC, LONG BEACH, CA. More information available from US FCC via Universal Licensing System and Coast Guard Vessel Documentation Center.

Last reported at 2017-Oct-16 19:50 UTC. Time now 2017-Oct-18 12:59 UTC.
Position N 33°53' W 118°26'.

Length 14 m.

Type: Passenger vessel. MMSI: 367131320.

Date/timePositionNaut miles runAvg speedWind from/ knotsBaromVisibWave heightAir tempDewpointWater temp
2017-Oct-16 19:50N 33°53' W 118°26'7 0.3
2017-Oct-15 20:14N 33°46' W 118°26'712.1
2017-Oct-15 19:37N 33°42' W 118°19'212.4
2017-Oct-15 19:30N 33°42' W 118°17'510.0
2017-Oct-15 19:00N 33°46' W 118°13'  
2017-Oct-08 05:32N 33°46' W 118°13'0 0.0
2017-Oct-08 05:30N 33°46' W 118°13'2 4.5
2017-Oct-08 05:00N 33°44' W 118°13'0 0.2
2017-Oct-08 04:30N 33°44' W 118°13'0 0.1
2017-Oct-08 04:00N 33°44' W 118°13'2 4.7
2017-Oct-08 03:31N 33°46' W 118°13'0 0.0
2017-Oct-08 03:00N 33°46' W 118°13'0 0.0
2017-Oct-08 02:30N 33°46' W 118°13'1 1.3
2017-Oct-08 02:01N 33°46' W 118°13'2 3.4
2017-Oct-08 01:30N 33°44' W 118°13'0 0.1
2017-Oct-07 22:02N 33°44' W 118°13'010.8
2017-Oct-07 22:00N 33°44' W 118°13'  
Track history (hours):
 
Tides and Currents Weather Stations Pressure Air Temp Water Temp Dewpoint Dewpoint Depression Visibility Wind Speed Wind Dir Waves Ship Positions

Danny G

Owner: PACIFIC TUGBOAT SERVICE, INC, LONG BEACH, CA. More information available from US FCC via Universal Licensing System and Coast Guard Vessel Documentation Center.

Last reported at 2017-Oct-16 19:50 UTC. Time now 2017-Oct-18 12:59 UTC.
Position N 33°53' W 118°26'.

Length 14 m.

Type: Passenger vessel. MMSI: 367131320.

Date/timePositionNaut miles runAvg speedWind from/ knotsBaromVisibWave heightAir tempDewpointWater temp
2017-Oct-16 19:50N 33°53' W 118°26'7 0.3
2017-Oct-15 20:14N 33°46' W 118°26'712.1
2017-Oct-15 19:37N 33°42' W 118°19'212.4
2017-Oct-15 19:30N 33°42' W 118°17'510.0
2017-Oct-15 19:00N 33°46' W 118°13'  
2017-Oct-08 05:32N 33°46' W 118°13'0 0.0
2017-Oct-08 05:30N 33°46' W 118°13'2 4.5
2017-Oct-08 05:00N 33°44' W 118°13'0 0.2
2017-Oct-08 04:30N 33°44' W 118°13'0 0.1
2017-Oct-08 04:00N 33°44' W 118°13'2 4.7
2017-Oct-08 03:31N 33°46' W 118°13'0 0.0
2017-Oct-08 03:00N 33°46' W 118°13'0 0.0
2017-Oct-08 02:30N 33°46' W 118°13'1 1.3
2017-Oct-08 02:01N 33°46' W 118°13'2 3.4
2017-Oct-08 01:30N 33°44' W 118°13'0 0.1
2017-Oct-07 22:02N 33°44' W 118°13'010.8
2017-Oct-07 22:00N 33°44' W 118°13'  

Dump ship's entire track history